< < Back
Terminal Aerodrome Forecast


Current Version              Previous Versions:   1  2  3  4  5  6  7  8  9  

Terminal Aerodrome Forecast

657
FTUS42 KCAE 031517 AAA
TAFCAE
TAF AMD
KCAE 031517Z 0315/0412 28005KT P6SM BKN150
     FM031800 VRB05KT P6SM SCT050 BKN150
     FM040300 00000KT P6SM SCT150=

Latest METAR

264
SAUS80 KWBC 031400
MTRCAE
METAR KCAE 031356Z 27004KT 10SM FEW150 BKN250 28/22 A2998 RMK AO2 SLP148
T02830222


USA.gov is the U.S. government's official web portal to all federal, state and local government web resources and services.